createdAt,value
2022-08-22T00:00:15.059Z,100380.34
2022-08-22T00:03:02.382Z,100265.78
2022-08-22T00:03:06.993Z,100389.03
2022-08-22T00:03:17.512Z,100384.47
2022-08-22T00:05:48.509Z,100393.44
2022-08-22T00:08:18.591Z,100377.63
2022-08-22T00:11:07.245Z,100387.13
2022-08-22T00:13:37.572Z,100376.56
2022-08-22T00:16:10.258Z,100378.31
2022-08-22T00:18:39.442Z,100372.34
2022-08-22T00:21:22.029Z,100375.97
2022-08-22T00:23:58.457Z,100371.72
2022-08-22T00:26:34.580Z,100372.31
2022-08-22T00:29:04.655Z,100374.41
2022-08-22T00:31:41.211Z,100372.81
2022-08-22T00:34:10.904Z,100375.09
2022-08-22T00:37:03.528Z,100371.94
2022-08-22T00:39:37.047Z,100371.63
2022-08-22T00:42:31.788Z,100371.66
2022-08-22T00:45:18.473Z,100377.00
2022-08-22T00:47:50.160Z,100380.56
2022-08-22T00:50:33.623Z,100371.75
2022-08-22T00:53:00.979Z,100366.78
2022-08-22T00:55:51.532Z,100369.72
2022-08-22T00:58:33.363Z,100363.38
2022-08-22T01:01:03.952Z,100364.13
2022-08-22T01:03:31.299Z,100361.94
2022-08-22T01:06:10.888Z,100354.44
2022-08-22T01:08:59.567Z,100352.47
2022-08-22T01:11:26.876Z,100352.59
2022-08-22T01:14:15.089Z,100346.03
2022-08-22T01:16:46.618Z,100358.00
2022-08-22T01:19:14.280Z,100344.19
2022-08-22T01:22:01.154Z,100344.56
2022-08-22T01:25:07.329Z,100340.25
2022-08-22T01:27:50.558Z,100330.88
2022-08-22T01:30:22.694Z,100346.66
2022-08-22T01:33:24.960Z,100335.16
2022-08-22T01:36:10.446Z,100342.72
2022-08-22T01:38:40.806Z,100328.97
2022-08-22T01:41:17.435Z,100329.47
2022-08-22T01:43:59.972Z,100333.19
2022-08-22T01:46:28.695Z,100334.81
2022-08-22T01:48:58.391Z,100330.13
2022-08-22T01:51:32.094Z,100329.47
2022-08-22T01:53:59.358Z,100325.56
2022-08-22T01:56:29.621Z,100321.72
2022-08-22T01:58:57.903Z,100329.78
2022-08-22T02:01:43.460Z,100323.53
2022-08-22T02:04:14.897Z,100324.25
2022-08-22T02:06:42.377Z,100319.47
2022-08-22T02:09:12.291Z,100319.47
2022-08-22T02:12:21.982Z,100314.38
2022-08-22T02:14:55.811Z,100316.53
2022-08-22T02:17:28.993Z,100319.47
2022-08-22T02:20:13.856Z,100318.00
2022-08-22T02:22:59.991Z,100326.00
2022-08-22T02:25:28.986Z,100309.22
2022-08-22T02:28:13.837Z,100307.97
2022-08-22T02:30:47.265Z,100311.34
2022-08-22T02:33:34.053Z,100313.94
2022-08-22T02:36:04.235Z,100302.09
2022-08-22T02:38:34.800Z,100306.03
2022-08-22T02:41:10.719Z,100304.31
2022-08-22T02:43:38.077Z,100298.59
2022-08-22T02:46:13.056Z,100291.91
2022-08-22T02:48:45.703Z,100301.41
2022-08-22T02:51:15.827Z,100299.91
2022-08-22T02:53:57.820Z,100293.84
2022-08-22T02:56:37.169Z,100302.72
2022-08-22T02:59:23.965Z,100291.09
2022-08-22T03:01:56.135Z,100302.53
2022-08-22T03:04:23.427Z,100297.19
2022-08-22T03:07:08.019Z,100300.06
2022-08-22T03:09:44.721Z,100303.94
2022-08-22T03:12:27.267Z,100298.47
2022-08-22T03:15:09.040Z,100300.03
2022-08-22T03:17:39.744Z,100305.59
2022-08-22T03:20:09.887Z,100300.13
2022-08-22T03:22:45.324Z,100306.03
2022-08-22T03:25:15.093Z,100309.78
2022-08-22T03:27:50.864Z,100303.88
2022-08-22T03:30:20.147Z,100306.63
2022-08-22T03:32:53.867Z,100302.22
2022-08-22T03:38:33.545Z,100295.78
2022-08-22T03:41:03.111Z,100302.44
2022-08-22T03:43:33.474Z,100302.22
2022-08-22T03:46:03.444Z,100296.47
2022-08-22T03:48:38.141Z,100297.56
2022-08-22T03:51:08.418Z,100300.13
2022-08-22T03:53:48.127Z,100301.19
2022-08-22T03:56:28.928Z,100302.94
2022-08-22T03:59:10.251Z,100308.34
2022-08-22T04:02:01.500Z,100292.38
2022-08-22T04:04:47.525Z,100307.94
2022-08-22T04:07:33.812Z,100303.16
2022-08-22T04:10:21.055Z,100304.88
2022-08-22T04:13:10.143Z,100312.00
2022-08-22T04:15:45.489Z,100311.72
2022-08-22T04:18:12.889Z,100307.81
2022-08-22T04:20:59.902Z,100302.63
2022-08-22T04:23:45.894Z,100306.81
2022-08-22T04:26:16.038Z,100307.34
2022-08-22T04:28:51.288Z,100308.25
2022-08-22T04:31:23.407Z,100306.28
2022-08-22T04:33:52.911Z,100306.47
2022-08-22T04:36:24.814Z,100301.94
2022-08-22T04:38:53.942Z,100311.00
2022-08-22T04:41:25.448Z,100308.59
2022-08-22T04:43:54.988Z,100312.47
2022-08-22T04:46:33.609Z,100307.72
2022-08-22T04:49:10.992Z,100312.63
2022-08-22T04:51:40.692Z,100317.34
2022-08-22T04:54:13.758Z,100316.34
2022-08-22T04:56:46.925Z,100317.94
2022-08-22T04:59:18.273Z,100317.84
2022-08-22T05:01:56.196Z,100324.06
2022-08-22T05:04:28.045Z,100322.59
2022-08-22T05:06:57.681Z,100321.16
2022-08-22T05:09:28.370Z,100325.34
2022-08-22T05:12:01.068Z,100330.22
2022-08-22T05:14:30.514Z,100327.41
2022-08-22T05:16:58.757Z,100325.34
2022-08-22T05:19:37.655Z,100326.06
2022-08-22T05:22:15.102Z,100329.53
2022-08-22T05:24:44.193Z,100324.81
2022-08-22T05:27:18.200Z,100337.34
2022-08-22T05:29:48.013Z,100336.66
2022-08-22T05:32:18.553Z,100335.78
2022-08-22T05:34:47.698Z,100339.78
2022-08-22T05:37:26.032Z,100336.31
2022-08-22T05:39:54.586Z,100340.19
2022-08-22T05:42:28.761Z,100337.25
2022-08-22T05:44:56.108Z,100336.84
2022-08-22T05:47:32.653Z,100340.94
2022-08-22T05:50:06.123Z,100335.59
2022-08-22T05:52:39.934Z,100338.50
2022-08-22T05:55:23.549Z,100333.19
2022-08-22T05:58:05.929Z,100332.00
2022-08-22T06:00:33.629Z,100336.47
2022-08-22T06:03:24.459Z,100341.25
2022-08-22T06:05:53.402Z,100342.25
2022-08-22T06:08:23.385Z,100343.91
2022-08-22T06:10:54.316Z,100339.84
2022-08-22T06:13:24.441Z,100337.63
2022-08-22T06:15:55.422Z,100344.03
2022-08-22T06:18:24.748Z,100345.09
2022-08-22T06:21:01.982Z,100351.06
2022-08-22T06:23:30.549Z,100353.22
2022-08-22T06:25:58.561Z,100361.75
2022-08-22T06:28:27.446Z,100349.84
2022-08-22T06:30:56.227Z,100357.38
2022-08-22T06:33:27.071Z,100360.59
2022-08-22T06:36:28.396Z,100354.00
2022-08-22T06:39:07.020Z,100353.88
2022-08-22T06:41:38.187Z,100358.47
2022-08-22T06:44:14.084Z,100351.59
2022-08-22T06:46:41.620Z,100357.75
2022-08-22T06:49:09.223Z,100350.78
2022-08-22T06:51:37.078Z,100364.25
2022-08-22T06:54:18.456Z,100351.78
2022-08-22T06:56:46.324Z,100362.38
2022-08-22T06:59:14.871Z,100365.91
2022-08-22T07:01:47.947Z,100365.38
2022-08-22T07:04:15.866Z,100359.25
2022-08-22T07:06:44.577Z,100360.59
2022-08-22T07:09:26.026Z,100364.19
2022-08-22T07:11:53.971Z,100355.28
2022-08-22T07:14:39.475Z,100360.34
2022-08-22T07:17:08.700Z,100366.78
2022-08-22T07:19:37.717Z,100362.50
2022-08-22T07:22:12.934Z,100358.88
2022-08-22T07:24:42.377Z,100364.53
2022-08-22T07:27:18.947Z,100359.75
2022-08-22T07:30:27.366Z,100362.78
2022-08-22T07:32:55.466Z,100366.00
2022-08-22T07:35:34.325Z,100358.56
2022-08-22T07:38:08.204Z,100354.00
2022-08-22T07:40:56.763Z,100360.81
2022-08-22T07:43:31.438Z,100354.91
2022-08-22T07:46:08.474Z,100361.00
2022-08-22T07:48:59.320Z,100358.78
2022-08-22T07:51:32.095Z,100358.06
2022-08-22T07:54:00.917Z,100357.81
2022-08-22T07:56:33.718Z,100354.75
2022-08-22T07:59:09.359Z,100354.34
2022-08-22T08:01:44.090Z,100360.00
2022-08-22T08:04:13.144Z,100358.91
2022-08-22T08:06:40.358Z,100357.94
2022-08-22T08:09:09.798Z,100358.38
2022-08-22T08:11:40.028Z,100361.19
2022-08-22T08:14:07.553Z,100359.66
2022-08-22T08:16:42.771Z,100357.75
2022-08-22T08:19:10.827Z,100357.94
2022-08-22T08:21:39.346Z,100357.53
2022-08-22T08:24:07.850Z,100354.00
2022-08-22T08:26:59.413Z,100351.00
2022-08-22T08:29:27.050Z,100356.66
2022-08-22T08:31:54.381Z,100365.72
2022-08-22T08:34:23.465Z,100357.25
2022-08-22T08:36:57.873Z,100359.78
2022-08-22T08:39:57.715Z,100357.72
2022-08-22T08:42:59.902Z,100362.78
2022-08-22T08:45:42.909Z,100359.69
2022-08-22T08:48:21.771Z,100358.09
2022-08-22T08:50:59.370Z,100352.47
2022-08-22T08:53:45.347Z,100349.88
2022-08-22T08:56:19.625Z,100349.63
2022-08-22T08:58:50.881Z,100351.47
2022-08-22T09:01:29.650Z,100344.56
2022-08-22T09:04:15.222Z,100346.19
2022-08-22T09:07:01.048Z,100342.47
2022-08-22T09:09:31.996Z,100339.00
2022-08-22T09:12:15.024Z,100339.03
2022-08-22T09:14:48.679Z,100338.22
2022-08-22T09:17:18.345Z,100342.09
2022-08-22T09:20:17.684Z,100341.59
2022-08-22T09:23:05.580Z,100342.97
2022-08-22T09:25:46.148Z,100336.25
2022-08-22T09:28:19.793Z,100331.59
2022-08-22T09:30:54.265Z,100333.66
2022-08-22T09:33:25.041Z,100330.28
2022-08-22T09:36:13.384Z,100325.19
2022-08-22T09:38:48.341Z,100321.31
2022-08-22T09:41:19.722Z,100319.94
2022-08-22T09:43:57.325Z,100317.31
2022-08-22T09:46:32.118Z,100313.72
2022-08-22T09:49:07.278Z,100306.69
2022-08-22T09:51:38.986Z,100307.78
2022-08-22T09:54:11.248Z,100300.44
2022-08-22T09:56:41.897Z,100306.03
2022-08-22T09:59:12.423Z,100314.13
2022-08-22T10:01:48.515Z,100307.53
2022-08-22T10:04:20.414Z,100307.56
2022-08-22T10:06:51.976Z,100304.22
2022-08-22T10:09:31.166Z,100305.53
2022-08-22T10:12:12.881Z,100297.69
2022-08-22T10:14:59.491Z,100296.97
2022-08-22T10:17:40.963Z,100292.25
2022-08-22T10:20:25.547Z,100293.88
2022-08-22T10:22:55.769Z,100283.44
2022-08-22T10:25:34.348Z,100292.97
2022-08-22T10:28:17.069Z,100283.91
2022-08-22T10:33:44.464Z,100282.66
2022-08-22T10:36:23.609Z,100279.66
2022-08-22T10:38:54.916Z,100279.28
2022-08-22T10:41:22.731Z,100281.28
2022-08-22T10:44:00.740Z,100283.56
2022-08-22T10:46:36.071Z,100274.06
2022-08-22T10:49:08.168Z,100274.91
2022-08-22T10:51:36.734Z,100273.03
2022-08-22T10:54:19.934Z,100272.22
2022-08-22T10:57:03.626Z,100264.22
2022-08-22T10:59:48.352Z,100266.66
2022-08-22T11:02:38.684Z,100264.28
2022-08-22T11:05:14.070Z,100251.91
2022-08-22T11:07:58.874Z,100254.00
2022-08-22T11:10:29.687Z,100250.75
2022-08-22T11:13:00.486Z,100255.94
2022-08-22T11:15:47.546Z,100251.94
2022-08-22T11:18:18.934Z,100243.13
2022-08-22T11:20:55.863Z,100248.34
2022-08-22T11:23:27.095Z,100244.16
2022-08-22T11:26:13.359Z,100239.16
2022-08-22T11:28:55.530Z,100236.13
2022-08-22T11:31:47.339Z,100238.47
2022-08-22T11:34:41.367Z,100226.72
2022-08-22T11:37:15.422Z,100239.16
2022-08-22T11:40:06.680Z,100241.06
2022-08-22T11:42:59.181Z,100238.22
2022-08-22T11:45:35.088Z,100228.53
2022-08-22T11:48:08.591Z,100229.13
2022-08-22T11:50:42.857Z,100218.63
2022-08-22T11:53:32.367Z,100217.00
2022-08-22T11:56:08.453Z,100212.50
2022-08-22T11:59:14.044Z,100219.81
2022-08-22T12:01:46.786Z,100210.09
2022-08-22T12:04:26.628Z,100209.72
2022-08-22T12:07:15.972Z,100208.09
2022-08-22T12:09:51.965Z,100188.72
2022-08-22T12:12:27.902Z,100197.19
2022-08-22T12:15:08.839Z,100193.25
2022-08-22T12:18:01.308Z,100198.91
2022-08-22T12:20:37.405Z,100195.53
2022-08-22T12:23:08.217Z,100189.50
2022-08-22T12:26:10.778Z,100189.72
2022-08-22T12:28:59.987Z,100194.78
2022-08-22T12:31:31.285Z,100194.91
2022-08-22T12:34:14.232Z,100184.88
2022-08-22T12:37:02.043Z,100182.16
2022-08-22T12:39:50.166Z,100187.75
2022-08-22T12:42:36.353Z,100187.81
2022-08-22T12:45:16.055Z,100176.44
2022-08-22T12:47:43.689Z,100176.94
2022-08-22T12:50:15.880Z,100182.38
2022-08-22T12:53:23.550Z,100185.91
2022-08-22T12:55:58.953Z,100189.38
2022-08-22T12:58:46.206Z,100171.75
2022-08-22T13:01:43.372Z,100176.66
2022-08-22T13:04:32.582Z,100174.66
2022-08-22T13:07:05.467Z,100174.94
2022-08-22T13:09:37.892Z,100165.19
2022-08-22T13:12:05.490Z,100167.03
2022-08-22T13:14:37.361Z,100166.41
2022-08-22T13:17:23.873Z,100162.31
2022-08-22T13:20:08.624Z,100159.22
2022-08-22T13:22:38.940Z,100150.00
2022-08-22T13:25:26.219Z,100148.22
2022-08-22T13:27:55.201Z,100149.22
2022-08-22T13:30:26.745Z,100143.28
2022-08-22T13:32:55.234Z,100146.50
2022-08-22T13:35:27.716Z,100151.53
2022-08-22T13:38:12.039Z,100142.94
2022-08-22T13:40:42.824Z,100146.28
2022-08-22T13:43:13.057Z,100145.88
2022-08-22T13:45:42.844Z,100143.53
2022-08-22T13:48:12.479Z,100131.84
2022-08-22T13:51:14.096Z,100131.72
2022-08-22T13:53:50.022Z,100140.53
2022-08-22T13:56:31.424Z,100134.16
2022-08-22T13:58:59.540Z,100122.13
2022-08-22T14:01:33.450Z,100131.06
2022-08-22T14:04:05.478Z,100123.69
2022-08-22T14:06:55.424Z,100125.72
2022-08-22T14:09:32.119Z,100127.66
2022-08-22T14:12:22.435Z,100122.97
2022-08-22T14:14:55.314Z,100123.47
2022-08-22T14:17:23.992Z,100116.66
2022-08-22T14:19:58.939Z,100117.44
2022-08-22T14:22:32.519Z,100121.47
2022-08-22T14:25:05.102Z,100119.94
2022-08-22T14:27:35.910Z,100121.09
2022-08-22T14:30:07.911Z,100114.81
2022-08-22T14:32:36.394Z,100115.94
2022-08-22T14:35:37.578Z,100125.44
2022-08-22T14:38:12.144Z,100120.31
2022-08-22T14:40:47.483Z,100116.78
2022-08-22T14:43:15.896Z,100108.84
2022-08-22T14:45:57.378Z,100113.56
2022-08-22T14:48:33.181Z,100113.59
2022-08-22T14:51:03.931Z,100108.84
2022-08-22T14:53:35.541Z,100107.63
2022-08-22T14:56:06.008Z,100112.84
2022-08-22T14:58:54.817Z,100108.03
2022-08-22T15:01:26.360Z,100108.47
2022-08-22T15:04:03.465Z,100104.88
2022-08-22T15:06:35.951Z,100105.69
2022-08-22T15:09:08.798Z,100098.56
2022-08-22T15:11:36.132Z,100098.56
2022-08-22T15:14:12.519Z,100097.34
2022-08-22T15:16:45.529Z,100093.75
2022-08-22T15:19:48.459Z,100084.22
2022-08-22T15:22:25.802Z,100094.94
2022-08-22T15:24:58.077Z,100094.94
2022-08-22T15:27:25.947Z,100090.16
2022-08-22T15:29:57.079Z,100078.66
2022-08-22T15:32:26.627Z,100085.00
2022-08-22T15:34:54.395Z,100082.19
2022-08-22T15:37:21.760Z,100084.22
2022-08-22T15:40:10.244Z,100074.28
2022-08-22T15:42:45.779Z,100074.31
2022-08-22T15:45:29.708Z,100079.47
2022-08-22T15:47:58.219Z,100081.09
2022-08-22T15:50:34.498Z,100074.75
2022-08-22T15:53:24.312Z,100084.63
2022-08-22T15:56:06.814Z,100085.06
2022-08-22T15:58:39.780Z,100080.66
2022-08-22T16:01:19.729Z,100075.53
2022-08-22T16:03:53.838Z,100083.06
2022-08-22T16:06:39.943Z,100082.69
2022-08-22T16:09:30.201Z,100074.69
2022-08-22T16:12:00.953Z,100077.91
2022-08-22T16:14:34.549Z,100084.28
2022-08-22T16:17:04.303Z,100077.91
2022-08-22T16:19:33.208Z,100084.28
2022-08-22T16:22:07.502Z,100079.09
2022-08-22T16:24:55.253Z,100081.88
2022-08-22T16:27:23.108Z,100076.31
2022-08-22T16:30:02.253Z,100087.03
2022-08-22T16:32:32.682Z,100080.31
2022-08-22T16:35:00.016Z,100086.63
2022-08-22T16:37:33.525Z,100083.06
2022-08-22T16:40:03.579Z,100096.19
2022-08-22T16:42:34.016Z,100094.63
2022-08-22T16:45:07.356Z,100098.56
2022-08-22T16:47:40.182Z,100096.19
2022-08-22T16:50:07.688Z,100104.91
2022-08-22T16:52:37.932Z,100103.75
2022-08-22T16:55:07.067Z,100108.47
2022-08-22T16:57:59.402Z,100090.59
2022-08-22T17:00:39.054Z,100099.72
2022-08-22T17:03:21.540Z,100098.16
2022-08-22T17:05:58.414Z,100106.47
2022-08-22T17:08:40.795Z,100103.31
2022-08-22T17:11:14.591Z,100104.91
2022-08-22T17:14:01.039Z,100095.75
2022-08-22T17:16:39.863Z,100092.97
2022-08-22T17:19:19.076Z,100099.72
2022-08-22T17:21:51.804Z,100099.72
2022-08-22T17:24:36.743Z,100096.94
2022-08-22T17:27:23.512Z,100094.16
2022-08-22T17:29:57.615Z,100096.16
2022-08-22T17:32:31.187Z,100092.97
2022-08-22T17:34:58.656Z,100101.69
2022-08-22T17:37:46.705Z,100101.69
2022-08-22T17:40:14.220Z,100105.59
2022-08-22T17:42:44.765Z,100107.13
2022-08-22T17:45:18.746Z,100110.28
2022-08-22T17:47:46.085Z,100108.31
2022-08-22T17:50:23.613Z,100113.88
2022-08-22T17:53:04.062Z,100118.13
2022-08-22T17:55:38.731Z,100117.00
2022-08-22T17:58:11.901Z,100120.91
2022-08-22T18:00:48.875Z,100122.38
2022-08-22T18:03:26.552Z,100125.25
2022-08-22T18:06:16.198Z,100126.03
2022-08-22T18:12:02.776Z,100131.56
2022-08-22T18:14:48.760Z,100140.72
2022-08-22T18:17:22.936Z,100145.47
2022-08-22T18:19:54.772Z,100146.97
2022-08-22T18:22:28.798Z,100146.19
2022-08-22T18:25:08.725Z,100152.91
2022-08-22T18:27:43.678Z,100152.19
2022-08-22T18:30:11.094Z,100155.72
2022-08-22T18:32:58.767Z,100150.53
2022-08-22T18:35:41.997Z,100155.78
2022-08-22T18:38:29.480Z,100161.34
2022-08-22T18:41:11.909Z,100163.22
2022-08-22T18:43:40.715Z,100173.13
2022-08-22T18:46:26.774Z,100172.31
2022-08-22T18:49:14.526Z,100179.84
2022-08-22T18:51:41.806Z,100176.94
2022-08-22T18:54:12.128Z,100181.59
2022-08-22T18:56:42.207Z,100187.47
2022-08-22T18:59:32.911Z,100186.75
2022-08-22T19:02:03.679Z,100190.25
2022-08-22T19:04:40.418Z,100194.25
2022-08-22T19:07:17.208Z,100189.41
2022-08-22T19:09:47.381Z,100203.28
2022-08-22T19:12:20.581Z,100208.72
2022-08-22T19:14:50.682Z,100208.06
2022-08-22T19:17:30.008Z,100213.19
2022-08-22T19:20:22.241Z,100213.25
2022-08-22T19:22:51.262Z,100220.53
2022-08-22T19:25:29.658Z,100223.00
2022-08-22T19:27:57.042Z,100226.91
2022-08-22T19:30:33.289Z,100222.25
2022-08-22T19:33:02.937Z,100227.81
2022-08-22T19:35:37.668Z,100232.91
2022-08-22T19:38:06.380Z,100238.56
2022-08-22T19:40:45.966Z,100230.25
2022-08-22T19:43:40.964Z,100244.19
2022-08-22T19:46:09.494Z,100251.25
2022-08-22T19:48:47.194Z,100250.50
2022-08-22T19:51:20.781Z,100242.72
2022-08-22T19:53:55.752Z,100248.00
2022-08-22T19:56:26.047Z,100253.47
2022-08-22T19:59:00.162Z,100259.56
2022-08-22T20:01:39.768Z,100260.44
2022-08-22T20:04:20.699Z,100262.44
2022-08-22T20:07:14.805Z,100266.03
2022-08-22T20:09:45.568Z,100274.81
2022-08-22T20:12:23.051Z,100272.41
2022-08-22T20:14:50.429Z,100272.50
2022-08-22T20:17:26.878Z,100280.69
2022-08-22T20:23:11.497Z,100284.09
2022-08-22T20:25:44.023Z,100287.31
2022-08-22T20:28:23.904Z,100287.41
2022-08-22T20:30:51.250Z,100290.78
2022-08-22T20:33:29.303Z,100293.59
2022-08-22T20:35:59.630Z,100289.69
2022-08-22T20:38:27.799Z,100287.84
2022-08-22T20:41:21.059Z,100298.75
2022-08-22T20:43:53.153Z,100297.00
2022-08-22T20:46:27.040Z,100299.84
2022-08-22T20:48:55.916Z,100303.03
2022-08-22T20:51:25.093Z,100302.75
2022-08-22T20:54:01.176Z,100301.91
2022-08-22T20:56:36.796Z,100308.09
2022-08-22T20:59:18.248Z,100312.97
2022-08-22T21:01:45.685Z,100308.94
2022-08-22T21:04:13.233Z,100311.25
2022-08-22T21:06:40.564Z,100310.59
2022-08-22T21:09:31.029Z,100318.44
2022-08-22T21:12:00.027Z,100317.59
2022-08-22T21:14:28.273Z,100310.91
2022-08-22T21:16:58.147Z,100315.69
2022-08-22T21:19:26.643Z,100316.25
2022-08-22T21:21:54.061Z,100311.81
2022-08-22T21:24:21.385Z,100317.78
2022-08-22T21:26:48.677Z,100319.41
2022-08-22T21:29:15.968Z,100321.03
2022-08-22T21:31:45.625Z,100327.53
2022-08-22T21:34:13.633Z,100320.41
2022-08-22T21:36:40.989Z,100317.34
2022-08-22T21:39:19.654Z,100315.63
2022-08-22T21:41:51.631Z,100332.34
2022-08-22T21:44:32.859Z,100327.44
2022-08-22T21:47:30.699Z,100331.31
2022-08-22T21:50:13.786Z,100327.69
2022-08-22T21:52:56.380Z,100340.44
2022-08-22T21:55:34.535Z,100336.31
2022-08-22T21:58:02.286Z,100332.88
2022-08-22T22:00:38.656Z,100337.91
2022-08-22T22:03:07.367Z,100343.88
2022-08-22T22:05:36.417Z,100348.66
2022-08-22T22:08:05.637Z,100340.44
2022-08-22T22:10:34.526Z,100343.44
2022-08-22T22:13:02.936Z,100348.63
2022-08-22T22:15:32.076Z,100357.19
2022-08-22T22:18:01.742Z,100359.69
2022-08-22T22:20:29.519Z,100357.22
2022-08-22T22:22:56.955Z,100363.66
2022-08-22T22:25:40.786Z,100366.59
2022-08-22T22:28:27.760Z,100364.81
2022-08-22T22:30:57.454Z,100358.84
2022-08-22T22:33:25.933Z,100362.91
2022-08-22T22:35:53.853Z,100374.94
2022-08-22T22:38:24.129Z,100373.50
2022-08-22T22:40:52.331Z,100373.44
2022-08-22T22:43:21.891Z,100371.91
2022-08-22T22:45:49.962Z,100375.09
2022-08-22T22:48:24.460Z,100380.56
2022-08-22T22:50:52.736Z,100374.41
2022-08-22T22:53:21.297Z,100370.91
2022-08-22T22:56:01.403Z,100380.63
2022-08-22T22:58:29.165Z,100377.16
2022-08-22T23:00:57.592Z,100379.25
2022-08-22T23:03:27.104Z,100379.31
2022-08-22T23:05:54.349Z,100380.38
2022-08-22T23:08:21.621Z,100377.53
2022-08-22T23:10:48.853Z,100387.97
2022-08-22T23:13:16.239Z,100379.38
2022-08-22T23:15:43.487Z,100381.25
2022-08-22T23:18:12.505Z,100386.84
2022-08-22T23:20:40.569Z,100389.31
2022-08-22T23:23:07.754Z,100389.25
2022-08-22T23:25:34.997Z,100383.28
2022-08-22T23:28:02.593Z,100386.28
2022-08-22T23:30:31.376Z,100383.94
2022-08-22T23:32:58.677Z,100388.75
2022-08-22T23:35:26.038Z,100382.13
2022-08-22T23:37:53.209Z,100387.34
2022-08-22T23:40:20.652Z,100385.84
2022-08-22T23:42:48.029Z,100382.66
2022-08-22T23:45:15.371Z,100388.03
2022-08-22T23:47:44.938Z,100387.41
2022-08-22T23:50:12.177Z,100384.25
2022-08-22T23:52:39.550Z,100380.81
2022-08-22T23:55:06.863Z,100397.78
2022-08-22T23:57:34.787Z,100385.13
